createdAt,value
2023-02-06T00:01:43.729Z,100080.31
2023-02-06T00:04:11.949Z,100080.91
2023-02-06T00:06:40.283Z,100079.63
2023-02-06T00:09:08.771Z,100088.03
2023-02-06T00:11:37.235Z,100089.88
2023-02-06T00:14:07.171Z,100085.69
2023-02-06T00:16:37.026Z,100094.50
2023-02-06T00:19:06.078Z,100085.44
2023-02-06T00:21:34.686Z,100098.41
2023-02-06T00:24:03.684Z,100089.31
2023-02-06T00:26:32.970Z,100090.69
2023-02-06T00:29:01.179Z,100082.72
2023-02-06T00:31:31.059Z,100076.56
2023-02-06T00:33:59.468Z,100083.41
2023-02-06T00:36:28.163Z,100085.25
2023-02-06T00:38:56.330Z,100087.47
2023-02-06T00:41:24.558Z,100076.69
2023-02-06T00:43:52.648Z,100091.63
2023-02-06T00:46:20.703Z,100087.31
2023-02-06T00:48:50.625Z,100085.50
2023-02-06T00:51:19.132Z,100081.44
2023-02-06T00:53:49.026Z,100086.47
2023-02-06T00:56:18.649Z,100074.03
2023-02-06T00:58:46.900Z,100072.75
2023-02-06T01:01:15.301Z,100071.63
2023-02-06T01:03:43.871Z,100075.00
2023-02-06T01:06:13.153Z,100079.63
2023-02-06T01:08:41.125Z,100077.13
2023-02-06T01:11:14.173Z,100070.81
2023-02-06T01:13:43.262Z,100069.69
2023-02-06T01:16:15.201Z,100069.84
2023-02-06T01:18:43.988Z,100070.56
2023-02-06T01:21:15.536Z,100080.38
2023-02-06T01:23:44.218Z,100085.69
2023-02-06T01:26:14.876Z,100088.19
2023-02-06T01:28:44.762Z,100084.16
2023-02-06T01:31:13.179Z,100079.53
2023-02-06T01:33:41.469Z,100089.16
2023-02-06T01:36:10.740Z,100084.09
2023-02-06T01:38:40.576Z,100081.88
2023-02-06T01:41:10.454Z,100081.88
2023-02-06T01:43:41.128Z,100078.53
2023-02-06T01:46:10.093Z,100079.22
2023-02-06T01:48:42.709Z,100067.78
2023-02-06T01:51:15.297Z,100063.28
2023-02-06T01:53:48.041Z,100064.81
2023-02-06T01:56:19.747Z,100058.13
2023-02-06T01:58:51.755Z,100062.00
2023-02-06T02:01:21.556Z,100068.47
2023-02-06T02:03:53.457Z,100076.88
2023-02-06T02:06:25.464Z,100076.88
2023-02-06T02:08:58.332Z,100077.72
2023-02-06T02:11:31.468Z,100090.44
2023-02-06T02:13:59.850Z,100084.44
2023-02-06T02:16:39.982Z,100078.03
2023-02-06T02:19:32.570Z,100074.78
2023-02-06T02:22:36.130Z,100083.06
2023-02-06T02:25:46.922Z,100076.91
2023-02-06T02:28:59.144Z,100071.88
2023-02-06T02:31:56.664Z,100071.75
2023-02-06T02:35:13.331Z,100070.25
2023-02-06T02:37:53.088Z,100064.75
2023-02-06T02:40:29.518Z,100066.06
2023-02-06T02:43:06.025Z,100068.56
2023-02-06T02:45:41.128Z,100063.56
2023-02-06T02:48:14.873Z,100056.78
2023-02-06T02:50:45.222Z,100057.09
2023-02-06T02:53:15.323Z,100059.63
2023-02-06T02:55:43.603Z,100053.91
2023-02-06T02:58:17.078Z,100051.53
2023-02-06T03:00:49.934Z,100059.06
2023-02-06T03:03:22.980Z,100057.00
2023-02-06T03:06:19.810Z,100058.97
2023-02-06T03:08:54.771Z,100065.53
2023-02-06T03:11:23.512Z,100059.69
2023-02-06T03:13:57.230Z,100064.44
2023-02-06T03:16:29.505Z,100061.94
2023-02-06T03:19:04.507Z,100067.78
2023-02-06T03:21:37.972Z,100059.13
2023-02-06T03:24:11.808Z,100070.44
2023-02-06T03:26:43.403Z,100062.38
2023-02-06T03:29:14.119Z,100065.31
2023-02-06T03:31:49.805Z,100067.56
2023-02-06T03:34:24.032Z,100061.69
2023-02-06T03:36:54.619Z,100052.19
2023-02-06T03:39:24.848Z,100048.00
2023-02-06T03:41:54.908Z,100050.38
2023-02-06T03:44:26.488Z,100060.00
2023-02-06T03:46:56.918Z,100052.19
2023-02-06T03:49:28.896Z,100057.63
2023-02-06T03:52:03.062Z,100063.22
2023-02-06T03:54:33.510Z,100056.66
2023-02-06T03:57:04.368Z,100063.78
2023-02-06T03:59:32.722Z,100061.56
2023-02-06T04:02:04.557Z,100071.88
2023-02-06T04:04:36.812Z,100075.94
2023-02-06T04:07:13.212Z,100069.53
2023-02-06T04:09:41.438Z,100060.88
2023-02-06T04:12:10.853Z,100076.94
2023-02-06T04:14:38.944Z,100086.56
2023-02-06T04:17:07.810Z,100082.09
2023-02-06T04:19:37.032Z,100080.44
2023-02-06T04:22:08.093Z,100069.81
2023-02-06T04:24:37.213Z,100076.09
2023-02-06T04:27:05.729Z,100072.88
2023-02-06T04:29:33.964Z,100069.13
2023-02-06T04:32:03.476Z,100065.19
2023-02-06T04:34:31.995Z,100063.94
2023-02-06T04:37:00.954Z,100071.66
2023-02-06T04:39:31.687Z,100068.28
2023-02-06T04:41:59.788Z,100078.34
2023-02-06T04:44:28.181Z,100075.97
2023-02-06T04:46:56.422Z,100069.81
2023-02-06T04:49:24.411Z,100064.81
2023-02-06T04:51:52.770Z,100069.97
2023-02-06T04:54:20.850Z,100070.41
2023-02-06T04:56:50.796Z,100057.56
2023-02-06T04:59:18.826Z,100061.47
2023-02-06T05:01:47.203Z,100062.03
2023-02-06T05:04:15.918Z,100070.69
2023-02-06T05:06:43.893Z,100076.97
2023-02-06T05:09:12.115Z,100074.59
2023-02-06T05:11:40.401Z,100067.75
2023-02-06T05:14:09.707Z,100071.25
2023-02-06T05:16:37.984Z,100067.19
2023-02-06T05:19:05.950Z,100071.69
2023-02-06T05:21:34.262Z,100070.31
2023-02-06T05:24:02.952Z,100072.06
2023-02-06T05:26:30.996Z,100083.13
2023-02-06T05:28:59.324Z,100083.56
2023-02-06T05:31:29.105Z,100074.47
2023-02-06T05:33:57.796Z,100072.63
2023-02-06T05:36:26.082Z,100076.81
2023-02-06T05:38:53.964Z,100065.09
2023-02-06T05:41:22.403Z,100072.91
2023-02-06T05:43:50.644Z,100082.28
2023-02-06T05:46:19.725Z,100079.63
2023-02-06T05:48:49.119Z,100077.53
2023-02-06T05:51:17.301Z,100074.03
2023-02-06T05:53:45.878Z,100076.41
2023-02-06T05:56:13.885Z,100077.53
2023-02-06T05:58:42.314Z,100064.50
2023-02-06T06:01:12.018Z,100061.75
2023-02-06T06:03:40.261Z,100051.97
2023-02-06T06:06:10.307Z,100062.28
2023-02-06T06:08:38.503Z,100062.44
2023-02-06T06:11:07.622Z,100076.53
2023-02-06T06:13:36.609Z,100072.63
2023-02-06T06:16:05.115Z,100084.50
2023-02-06T06:18:33.964Z,100073.03
2023-02-06T06:21:01.977Z,100076.53
2023-02-06T06:23:31.671Z,100079.31
2023-02-06T06:26:00.014Z,100094.25
2023-02-06T06:28:28.099Z,100090.09
2023-02-06T06:31:02.324Z,100090.50
2023-02-06T06:33:31.257Z,100086.31
2023-02-06T06:35:59.964Z,100087.13
2023-02-06T06:38:28.557Z,100079.03
2023-02-06T06:40:58.410Z,100083.38
2023-02-06T06:43:26.873Z,100088.97
2023-02-06T06:45:55.646Z,100089.94
2023-02-06T06:48:24.140Z,100089.94
2023-02-06T06:50:52.898Z,100091.91
2023-02-06T06:53:21.280Z,100095.81
2023-02-06T06:55:49.528Z,100098.59
2023-02-06T06:58:18.888Z,100098.31
2023-02-06T07:00:47.670Z,100099.44
2023-02-06T07:03:15.686Z,100100.56
2023-02-06T07:05:43.638Z,100094.97
2023-02-06T07:08:12.504Z,100097.50
2023-02-06T07:10:41.023Z,100100.44
2023-02-06T07:13:09.338Z,100102.25
2023-02-06T07:15:38.795Z,100093.31
2023-02-06T07:18:06.942Z,100102.78
2023-02-06T07:20:38.159Z,100102.50
2023-02-06T07:23:06.400Z,100102.38
2023-02-06T07:25:34.996Z,100096.38
2023-02-06T07:28:03.426Z,100103.91
2023-02-06T07:30:31.885Z,100107.97
2023-02-06T07:33:01.721Z,100103.91
2023-02-06T07:35:29.730Z,100104.19
2023-02-06T07:37:58.540Z,100108.25
2023-02-06T07:40:33.751Z,100108.66
2023-02-06T07:43:11.713Z,100115.94
2023-02-06T07:45:40.130Z,100110.06
2023-02-06T07:48:10.323Z,100110.47
2023-02-06T07:50:39.472Z,100103.91
2023-02-06T07:53:07.953Z,100111.47
2023-02-06T07:55:38.388Z,100098.59
2023-02-06T07:58:06.648Z,100093.56
2023-02-06T08:00:34.966Z,100096.34
2023-02-06T08:03:03.343Z,100092.88
2023-02-06T08:05:36.212Z,100092.84
2023-02-06T08:08:04.328Z,100101.78
2023-02-06T08:10:32.381Z,100104.19
2023-02-06T08:13:01.006Z,100105.59
2023-02-06T08:15:29.178Z,100112.13
2023-02-06T08:17:57.287Z,100108.78
2023-02-06T08:20:26.081Z,100103.88
2023-02-06T08:22:56.199Z,100098.03
2023-02-06T08:25:25.704Z,100097.34
2023-02-06T08:27:54.981Z,100106.41
2023-02-06T08:30:23.624Z,100109.22
2023-02-06T08:32:51.646Z,100107.41
2023-02-06T08:35:20.344Z,100114.09
2023-02-06T08:37:48.443Z,100114.94
2023-02-06T08:40:17.851Z,100107.13
2023-02-06T08:42:50.872Z,100103.47
2023-02-06T08:45:19.025Z,100099.56
2023-02-06T08:47:47.344Z,100100.81
2023-02-06T08:50:15.790Z,100098.00
2023-02-06T08:52:43.702Z,100101.66
2023-02-06T08:55:11.731Z,100108.66
2023-02-06T08:57:41.125Z,100112.00
2023-02-06T09:00:10.464Z,100119.13
2023-02-06T09:02:38.365Z,100118.72
2023-02-06T09:05:07.232Z,100118.28
2023-02-06T09:07:35.318Z,100117.47
2023-02-06T09:10:03.575Z,100111.72
2023-02-06T09:12:32.025Z,100107.97
2023-02-06T09:15:01.420Z,100105.31
2023-02-06T09:17:31.585Z,100099.72
2023-02-06T09:20:00.388Z,100101.94
2023-02-06T09:22:29.289Z,100100.97
2023-02-06T09:24:57.273Z,100108.22
2023-02-06T09:27:25.767Z,100099.97
2023-02-06T09:29:53.689Z,100101.63
2023-02-06T09:32:23.607Z,100092.38
2023-02-06T09:34:52.174Z,100102.19
2023-02-06T09:37:21.729Z,100092.09
2023-02-06T09:39:49.675Z,100084.69
2023-02-06T09:42:24.343Z,100080.22
2023-02-06T09:44:57.513Z,100067.63
2023-02-06T09:47:30.856Z,100070.00
2023-02-06T09:50:05.631Z,100056.84
2023-02-06T09:52:51.096Z,100063.91
2023-02-06T09:55:27.017Z,100044.81
2023-02-06T09:58:03.895Z,100049.81
2023-02-06T10:00:41.608Z,100044.75
2023-02-06T10:03:24.122Z,100038.44
2023-02-06T10:06:02.547Z,100042.78
2023-02-06T10:08:36.864Z,100047.09
2023-02-06T10:11:10.796Z,100028.66
2023-02-06T10:13:45.217Z,100030.19
2023-02-06T10:16:32.763Z,100032.69
2023-02-06T10:19:06.453Z,100027.91
2023-02-06T10:21:38.921Z,100024.81
2023-02-06T10:24:16.088Z,100012.38
2023-02-06T10:26:44.026Z,100019.06
2023-02-06T10:29:19.952Z,100016.78
2023-02-06T10:31:59.308Z,100012.00
2023-02-06T10:34:46.378Z,100016.03
2023-02-06T10:37:32.132Z,100010.72
2023-02-06T10:40:14.199Z,100017.31
2023-02-06T10:42:51.729Z,100008.75
2023-02-06T10:45:34.223Z,100018.34
2023-02-06T10:48:06.905Z,100014.47
2023-02-06T10:50:41.135Z,100016.28
2023-02-06T10:53:17.235Z,100012.72
2023-02-06T10:55:51.432Z,100006.72
2023-02-06T10:58:24.424Z,100002.09
2023-02-06T11:00:54.014Z,100001.09
2023-02-06T11:03:26.378Z,100002.78
2023-02-06T11:05:57.156Z,100003.84
2023-02-06T11:08:30.096Z,99986.22
2023-02-06T11:10:59.015Z,99980.44
2023-02-06T11:13:29.175Z,99983.41
2023-02-06T11:16:03.964Z,99978.91
2023-02-06T11:18:35.582Z,99979.22
2023-02-06T11:21:05.837Z,99973.22
2023-02-06T11:23:35.330Z,99979.06
2023-02-06T11:26:11.100Z,99974.88
2023-02-06T11:28:42.126Z,99974.28
2023-02-06T11:31:13.649Z,99966.53
2023-02-06T11:33:49.222Z,99967.91
2023-02-06T11:36:31.006Z,99976.25
2023-02-06T11:39:00.795Z,99971.53
2023-02-06T11:41:29.857Z,99970.09
2023-02-06T11:44:03.083Z,99967.44
2023-02-06T11:46:32.879Z,99967.66
2023-02-06T11:49:08.422Z,99963.41
2023-02-06T11:51:59.925Z,99961.50
2023-02-06T11:54:31.316Z,99965.53
2023-02-06T11:57:07.970Z,99957.63
2023-02-06T11:59:38.541Z,99957.88
2023-02-06T12:02:26.537Z,99954.53
2023-02-06T12:05:03.179Z,99950.03
2023-02-06T12:07:37.273Z,99944.03
2023-02-06T12:10:15.343Z,99939.50
2023-02-06T12:12:47.248Z,99938.06
2023-02-06T12:15:43.708Z,99936.16
2023-02-06T12:18:13.872Z,99935.16
2023-02-06T12:20:49.999Z,99934.19
2023-02-06T12:23:25.847Z,99925.22
2023-02-06T12:25:58.589Z,99916.56
2023-02-06T12:28:30.208Z,99922.84
2023-02-06T12:31:05.282Z,99926.88
2023-02-06T12:33:39.247Z,99932.28
2023-02-06T12:36:16.394Z,99940.63
2023-02-06T12:38:51.535Z,99932.28
2023-02-06T12:41:41.873Z,99937.00
2023-02-06T12:44:21.289Z,99934.25
2023-02-06T12:46:56.681Z,99908.03
2023-02-06T12:49:28.773Z,99927.25
2023-02-06T12:52:03.098Z,99918.69
2023-02-06T12:54:39.653Z,99910.25
2023-02-06T12:57:16.205Z,99911.84
2023-02-06T13:00:05.356Z,99916.19
2023-02-06T13:02:57.490Z,99888.69
2023-02-06T13:05:39.109Z,99879.41
2023-02-06T13:08:12.596Z,99878.13
2023-02-06T13:10:42.576Z,99881.47
2023-02-06T13:13:28.748Z,99880.84
2023-02-06T13:16:07.522Z,99884.72
2023-02-06T13:18:54.587Z,99883.72
2023-02-06T13:21:28.600Z,99881.22
2023-02-06T13:24:17.150Z,99886.00
2023-02-06T13:27:24.174Z,99890.25
2023-02-06T13:29:54.368Z,99883.75
2023-02-06T13:32:53.466Z,99876.72
2023-02-06T13:35:25.521Z,99878.84
2023-02-06T13:38:12.955Z,99872.59
2023-02-06T13:40:41.752Z,99882.78
2023-02-06T13:43:18.691Z,99874.63
2023-02-06T13:45:51.911Z,99880.94
2023-02-06T13:48:51.711Z,99878.59
2023-02-06T13:51:45.686Z,99876.31
2023-02-06T13:54:50.696Z,99869.69
2023-02-06T13:57:40.907Z,99882.16
2023-02-06T14:00:16.576Z,99879.63
2023-02-06T14:02:48.890Z,99878.28
2023-02-06T14:05:20.647Z,99877.28
2023-02-06T14:08:01.605Z,99881.94
2023-02-06T14:10:53.101Z,99883.44
2023-02-06T14:13:35.714Z,99871.59
2023-02-06T14:16:18.740Z,99880.06
2023-02-06T14:18:54.672Z,99882.56
2023-02-06T14:21:35.416Z,99876.81
2023-02-06T14:24:16.961Z,99882.81
2023-02-06T14:26:54.088Z,99880.84
2023-02-06T14:29:35.650Z,99881.16
2023-02-06T14:32:36.909Z,99892.63
2023-02-06T14:35:23.517Z,99899.94
2023-02-06T14:38:08.198Z,99896.03
2023-02-06T14:40:43.141Z,99891.09
2023-02-06T14:43:18.725Z,99895.44
2023-02-06T14:46:05.516Z,99889.88
2023-02-06T14:48:41.420Z,99884.72
2023-02-06T14:51:19.435Z,99891.84
2023-02-06T14:53:53.758Z,99898.16
2023-02-06T14:56:27.592Z,99902.28
2023-02-06T14:58:56.036Z,99901.66
2023-02-06T15:01:32.672Z,99899.31
2023-02-06T15:04:12.739Z,99900.44
2023-02-06T15:06:43.606Z,99895.97
2023-02-06T15:09:24.934Z,99893.53
2023-02-06T15:11:54.345Z,99891.31
2023-02-06T15:14:25.047Z,99895.34
2023-02-06T15:16:53.523Z,99904.09
2023-02-06T15:19:26.591Z,99909.78
2023-02-06T15:22:00.259Z,99894.50
2023-02-06T15:24:50.658Z,99892.16
2023-02-06T15:27:27.624Z,99898.78
2023-02-06T15:29:56.973Z,99882.81
2023-02-06T15:32:30.469Z,99885.09
2023-02-06T15:35:01.045Z,99873.47
2023-02-06T15:37:30.969Z,99868.16
2023-02-06T15:40:07.841Z,99881.38
2023-02-06T15:42:37.041Z,99879.78
2023-02-06T15:45:05.843Z,99873.47
2023-02-06T15:47:38.481Z,99864.69
2023-02-06T15:50:16.959Z,99878.19
2023-02-06T15:52:48.075Z,99874.69
2023-02-06T15:55:28.722Z,99871.66
2023-02-06T15:57:58.731Z,99864.00
2023-02-06T16:00:29.652Z,99863.75
2023-02-06T16:03:03.480Z,99865.81
2023-02-06T16:05:35.769Z,99866.66
2023-02-06T16:08:05.894Z,99865.66
2023-02-06T16:10:39.097Z,99867.50
2023-02-06T16:13:12.616Z,99862.31
2023-02-06T16:15:41.975Z,99872.59
2023-02-06T16:18:27.349Z,99869.94
2023-02-06T16:21:13.063Z,99863.69
2023-02-06T16:23:48.855Z,99877.44
2023-02-06T16:26:19.047Z,99874.25
2023-02-06T16:29:00.897Z,99874.25
2023-02-06T16:31:30.984Z,99870.06
2023-02-06T16:34:03.603Z,99864.91
2023-02-06T16:36:34.498Z,99870.53
2023-02-06T16:39:04.834Z,99877.53
2023-02-06T16:41:35.161Z,99880.19
2023-02-06T16:44:05.084Z,99878.66
2023-02-06T16:46:33.103Z,99875.03
2023-02-06T16:49:01.249Z,99872.66
2023-02-06T16:51:33.103Z,99880.50
2023-02-06T16:54:01.493Z,99882.75
2023-02-06T16:56:29.726Z,99888.09
2023-02-06T16:58:58.323Z,99882.63
2023-02-06T17:01:29.674Z,99876.31
2023-02-06T17:03:59.409Z,99875.63
2023-02-06T17:06:30.997Z,99866.81
2023-02-06T17:09:09.117Z,99864.16
2023-02-06T17:11:40.054Z,99860.81
2023-02-06T17:14:08.373Z,99867.13
2023-02-06T17:16:41.887Z,99869.19
2023-02-06T17:19:12.498Z,99873.59
2023-02-06T17:21:40.806Z,99867.44
2023-02-06T17:24:10.333Z,99857.09
2023-02-06T17:26:38.590Z,99869.25
2023-02-06T17:29:06.926Z,99880.19
2023-02-06T17:31:34.955Z,99877.69
2023-02-06T17:34:03.031Z,99883.00
2023-02-06T17:36:33.073Z,99885.34
2023-02-06T17:39:01.545Z,99882.75
2023-02-06T17:41:31.364Z,99873.44
2023-02-06T17:43:59.593Z,99872.91
2023-02-06T17:46:27.622Z,99873.56
2023-02-06T17:48:55.502Z,99869.25
2023-02-06T17:51:23.754Z,99875.56
2023-02-06T17:53:51.942Z,99873.72
2023-02-06T17:56:20.914Z,99876.38
2023-02-06T17:58:50.636Z,99870.53
2023-02-06T18:01:21.578Z,99865.59
2023-02-06T18:03:50.814Z,99871.06
2023-02-06T18:06:19.720Z,99871.38
2023-02-06T18:08:48.797Z,99869.25
2023-02-06T18:11:18.734Z,99866.06
2023-02-06T18:13:48.915Z,99869.03
2023-02-06T18:16:20.566Z,99869.84
2023-02-06T18:18:49.594Z,99864.53
2023-02-06T18:21:20.678Z,99865.53
2023-02-06T18:23:49.619Z,99866.38
2023-02-06T18:26:18.399Z,99870.38
2023-02-06T18:28:46.984Z,99861.72
2023-02-06T18:31:25.685Z,99856.91
2023-02-06T18:33:54.976Z,99854.69
2023-02-06T18:36:24.419Z,99852.19
2023-02-06T18:38:52.734Z,99864.38
2023-02-06T18:41:38.491Z,99868.66
2023-02-06T18:44:08.356Z,99860.16
2023-02-06T18:46:38.489Z,99872.91
2023-02-06T18:49:07.187Z,99863.28
2023-02-06T18:51:35.334Z,99856.44
2023-02-06T18:54:03.719Z,99852.81
2023-02-06T18:56:32.423Z,99854.47
2023-02-06T18:59:01.443Z,99852.81
2023-02-06T19:01:30.107Z,99853.69
2023-02-06T19:04:04.059Z,99849.22
2023-02-06T19:06:35.635Z,99843.63
2023-02-06T19:09:07.400Z,99843.91
2023-02-06T19:11:35.734Z,99852.19
2023-02-06T19:14:04.621Z,99849.66
2023-02-06T19:16:33.378Z,99844.34
2023-02-06T19:19:07.653Z,99844.34
2023-02-06T19:21:36.468Z,99843.81
2023-02-06T19:24:04.822Z,99841.16
2023-02-06T19:26:33.874Z,99840.63
2023-02-06T19:29:02.418Z,99841.16
2023-02-06T19:31:31.972Z,99842.59
2023-02-06T19:34:03.776Z,99847.47
2023-02-06T19:36:32.093Z,99843.19
2023-02-06T19:39:01.790Z,99842.50
2023-02-06T19:41:32.901Z,99852.44
2023-02-06T19:44:06.582Z,99858.88
2023-02-06T19:46:35.820Z,99855.69
2023-02-06T19:49:08.571Z,99858.63
2023-02-06T19:51:45.444Z,99863.53
2023-02-06T19:54:16.496Z,99866.41
2023-02-06T19:56:47.036Z,99861.59
2023-02-06T19:59:20.571Z,99863.66
2023-02-06T20:01:51.614Z,99867.28
2023-02-06T20:04:22.620Z,99869.25
2023-02-06T20:06:52.205Z,99864.09
2023-02-06T20:09:22.080Z,99865.06
2023-02-06T20:11:53.547Z,99860.09
2023-02-06T20:14:25.728Z,99857.13
2023-02-06T20:16:59.034Z,99838.09
2023-02-06T20:19:29.800Z,99840.66
2023-02-06T20:22:00.683Z,99853.63
2023-02-06T20:24:31.287Z,99850.81
2023-02-06T20:27:03.549Z,99859.75
2023-02-06T20:29:35.258Z,99866.94
2023-02-06T20:32:05.107Z,99870.84
2023-02-06T20:34:35.295Z,99868.75
2023-02-06T20:37:04.107Z,99865.13
2023-02-06T20:39:32.390Z,99871.41
2023-02-06T20:42:00.819Z,99865.41
2023-02-06T20:44:28.832Z,99866.31
2023-02-06T20:46:57.519Z,99874.16
2023-02-06T20:49:28.720Z,99873.59
2023-02-06T20:51:59.177Z,99871.06
2023-02-06T20:54:28.679Z,99882.66
2023-02-06T20:57:00.466Z,99872.78
2023-02-06T20:59:31.284Z,99866.34
2023-02-06T21:01:59.791Z,99866.22
2023-02-06T21:04:28.281Z,99853.38
2023-02-06T21:06:56.822Z,99868.31
2023-02-06T21:09:26.746Z,99861.78
2023-02-06T21:11:55.341Z,99853.13
2023-02-06T21:14:23.860Z,99840.84
2023-02-06T21:16:52.333Z,99837.75
2023-02-06T21:19:21.360Z,99825.47
2023-02-06T21:21:50.158Z,99838.31
2023-02-06T21:24:19.665Z,99835.75
2023-02-06T21:26:49.146Z,99840.53
2023-02-06T21:29:17.091Z,99834.38
2023-02-06T21:31:46.279Z,99837.03
2023-02-06T21:34:17.209Z,99836.84
2023-02-06T21:36:45.319Z,99842.28
2023-02-06T21:39:17.355Z,99845.25
2023-02-06T21:41:46.974Z,99834.19
2023-02-06T21:44:17.020Z,99837.06
2023-02-06T21:46:44.955Z,99831.53
2023-02-06T21:49:13.669Z,99836.31
2023-02-06T21:51:42.461Z,99835.63
2023-02-06T21:54:10.770Z,99826.81
2023-02-06T21:56:40.461Z,99837.53
2023-02-06T21:59:10.564Z,99828.50
2023-02-06T22:01:41.549Z,99824.16
2023-02-06T22:04:12.042Z,99833.34
2023-02-06T22:06:40.383Z,99843.72
2023-02-06T22:09:10.377Z,99843.72
2023-02-06T22:11:39.910Z,99835.47
2023-02-06T22:14:12.623Z,99840.00
2023-02-06T22:16:42.521Z,99839.78
2023-02-06T22:19:12.272Z,99840.22
2023-02-06T22:21:40.885Z,99843.97
2023-02-06T22:24:10.456Z,99838.13
2023-02-06T22:26:39.935Z,99847.06
2023-02-06T22:29:09.988Z,99847.06
2023-02-06T22:31:38.588Z,99837.72
2023-02-06T22:34:12.194Z,99842.34
2023-02-06T22:36:40.518Z,99845.44
2023-02-06T22:39:13.048Z,99849.59
2023-02-06T22:41:42.418Z,99847.25
2023-02-06T22:44:12.887Z,99853.81
2023-02-06T22:46:41.203Z,99861.63
2023-02-06T22:49:11.558Z,99869.47
2023-02-06T22:51:41.050Z,99872.69
2023-02-06T22:54:10.732Z,99887.38
2023-02-06T22:56:41.536Z,99885.00
2023-02-06T22:59:12.763Z,99876.19
2023-02-06T23:01:42.714Z,99891.53
2023-02-06T23:04:15.063Z,99886.53
2023-02-06T23:06:44.689Z,99889.19
2023-02-06T23:09:15.071Z,99891.00
2023-02-06T23:11:43.857Z,99899.97
2023-02-06T23:14:13.975Z,99908.88
2023-02-06T23:16:42.358Z,99900.94
2023-02-06T23:19:12.184Z,99901.78
2023-02-06T23:21:44.002Z,99905.41
2023-02-06T23:24:12.818Z,99908.94
2023-02-06T23:26:44.306Z,99910.75
2023-02-06T23:29:15.742Z,99912.00
2023-02-06T23:31:44.738Z,99921.47
2023-02-06T23:34:14.251Z,99921.06
2023-02-06T23:36:43.935Z,99927.59
2023-02-06T23:39:12.583Z,99939.59
2023-02-06T23:41:41.273Z,99930.53
2023-02-06T23:44:10.328Z,99929.97
2023-02-06T23:46:40.228Z,99925.34
2023-02-06T23:49:08.943Z,99923.81
2023-02-06T23:51:38.362Z,99933.00
2023-02-06T23:54:09.099Z,99933.97
2023-02-06T23:56:38.165Z,99933.84
2023-02-06T23:59:07.868Z,99944.69
